sensor_id;sensor_type;location;lat;lon;timestamp;P1;durP1;ratioP1;P2;durP2;ratioP2
57832;SDS011;43667;53.036;6.740;2023-05-10T00:00:13;11.35;;;9.55;;
57832;SDS011;43667;53.036;6.740;2023-05-10T00:02:39;9.48;;;8.65;;
57832;SDS011;43667;53.036;6.740;2023-05-10T00:05:05;10.68;;;9.68;;
57832;SDS011;43667;53.036;6.740;2023-05-10T00:07:31;9.43;;;8.50;;
57832;SDS011;43667;53.036;6.740;2023-05-10T00:09:57;11.07;;;9.98;;
57832;SDS011;43667;53.036;6.740;2023-05-10T00:12:23;11.40;;;9.20;;
57832;SDS011;43667;53.036;6.740;2023-05-10T00:14:48;11.07;;;10.00;;
57832;SDS011;43667;53.036;6.740;2023-05-10T00:17:14;10.93;;;9.93;;
57832;SDS011;43667;53.036;6.740;2023-05-10T00:19:40;10.85;;;8.95;;
57832;SDS011;43667;53.036;6.740;2023-05-10T00:22:05;12.35;;;10.95;;
57832;SDS011;43667;53.036;6.740;2023-05-10T00:24:31;10.25;;;9.35;;
57832;SDS011;43667;53.036;6.740;2023-05-10T00:26:56;13.02;;;11.15;;
57832;SDS011;43667;53.036;6.740;2023-05-10T00:29:22;15.75;;;13.55;;
57832;SDS011;43667;53.036;6.740;2023-05-10T00:31:47;13.77;;;11.43;;
57832;SDS011;43667;53.036;6.740;2023-05-10T00:34:13;14.45;;;12.95;;
57832;SDS011;43667;53.036;6.740;2023-05-10T00:36:39;13.13;;;11.85;;
57832;SDS011;43667;53.036;6.740;2023-05-10T00:39:04;15.43;;;13.82;;
57832;SDS011;43667;53.036;6.740;2023-05-10T00:41:30;12.43;;;11.30;;
57832;SDS011;43667;53.036;6.740;2023-05-10T00:43:58;12.77;;;11.48;;
57832;SDS011;43667;53.036;6.740;2023-05-10T00:46:24;14.13;;;12.73;;
57832;SDS011;43667;53.036;6.740;2023-05-10T00:48:50;14.13;;;12.73;;
57832;SDS011;43667;53.036;6.740;2023-05-10T00:51:16;19.15;;;14.27;;
57832;SDS011;43667;53.036;6.740;2023-05-10T00:53:44;13.88;;;12.50;;
57832;SDS011;43667;53.036;6.740;2023-05-10T00:56:11;14.30;;;12.88;;
57832;SDS011;43667;53.036;6.740;2023-05-10T00:58:37;14.70;;;12.30;;
57832;SDS011;43667;53.036;6.740;2023-05-10T01:01:03;13.75;;;11.68;;
57832;SDS011;43667;53.036;6.740;2023-05-10T01:03:30;12.10;;;10.82;;
57832;SDS011;43667;53.036;6.740;2023-05-10T01:05:57;12.77;;;11.48;;
57832;SDS011;43667;53.036;6.740;2023-05-10T01:08:22;14.27;;;11.88;;
57832;SDS011;43667;53.036;6.740;2023-05-10T01:10:48;12.32;;;11.05;;
57832;SDS011;43667;53.036;6.740;2023-05-10T01:13:18;12.20;;;10.98;;
57832;SDS011;43667;53.036;6.740;2023-05-10T01:15:59;13.55;;;11.98;;
57832;SDS011;43667;53.036;6.740;2023-05-10T01:18:27;13.07;;;11.20;;
57832;SDS011;43667;53.036;6.740;2023-05-10T01:21:08;11.82;;;10.55;;
57832;SDS011;43667;53.036;6.740;2023-05-10T01:26:39;14.82;;;12.75;;
57832;SDS011;43667;53.036;6.740;2023-05-10T01:29:36;13.02;;;11.63;;
57832;SDS011;43667;53.036;6.740;2023-05-10T01:32:24;16.02;;;12.25;;
57832;SDS011;43667;53.036;6.740;2023-05-10T01:35:04;13.10;;;11.52;;
57832;SDS011;43667;53.036;6.740;2023-05-10T01:37:41;17.10;;;13.10;;
57832;SDS011;43667;53.036;6.740;2023-05-10T01:40:14;17.15;;;12.55;;
57832;SDS011;43667;53.036;6.740;2023-05-10T01:42:47;17.25;;;12.45;;
57832;SDS011;43667;53.036;6.740;2023-05-10T01:45:19;14.63;;;13.02;;
57832;SDS011;43667;53.036;6.740;2023-05-10T01:48:05;19.15;;;13.30;;
57832;SDS011;43667;53.036;6.740;2023-05-10T01:50:36;13.45;;;12.02;;
57832;SDS011;43667;53.036;6.740;2023-05-10T01:53:05;19.98;;;13.77;;
57832;SDS011;43667;53.036;6.740;2023-05-10T01:55:34;13.30;;;11.90;;
57832;SDS011;43667;53.036;6.740;2023-05-10T01:58:07;14.23;;;12.40;;
57832;SDS011;43667;53.036;6.740;2023-05-10T02:00:35;13.40;;;11.82;;
57832;SDS011;43667;53.036;6.740;2023-05-10T02:03:05;13.70;;;11.63;;
57832;SDS011;43667;53.036;6.740;2023-05-10T02:05:33;15.90;;;11.82;;
57832;SDS011;43667;53.036;6.740;2023-05-10T02:08:01;14.68;;;11.40;;
57832;SDS011;43667;53.036;6.740;2023-05-10T02:10:31;12.82;;;11.25;;
57832;SDS011;43667;53.036;6.740;2023-05-10T02:12:58;16.77;;;12.15;;
57832;SDS011;43667;53.036;6.740;2023-05-10T02:15:25;14.55;;;12.00;;
57832;SDS011;43667;53.036;6.740;2023-05-10T02:17:52;14.10;;;11.43;;
57832;SDS011;43667;53.036;6.740;2023-05-10T02:20:20;15.48;;;12.95;;
57832;SDS011;43667;53.036;6.740;2023-05-10T02:22:49;16.85;;;13.48;;
57832;SDS011;43667;53.036;6.740;2023-05-10T02:25:17;18.50;;;14.13;;
57832;SDS011;43667;53.036;6.740;2023-05-10T02:27:46;16.40;;;12.02;;
57832;SDS011;43667;53.036;6.740;2023-05-10T02:30:13;20.77;;;14.20;;
57832;SDS011;43667;53.036;6.740;2023-05-10T02:32:39;17.90;;;14.23;;
57832;SDS011;43667;53.036;6.740;2023-05-10T02:35:06;19.67;;;13.82;;
57832;SDS011;43667;53.036;6.740;2023-05-10T02:37:33;15.77;;;13.45;;
57832;SDS011;43667;53.036;6.740;2023-05-10T02:40:00;17.70;;;13.88;;
57832;SDS011;43667;53.036;6.740;2023-05-10T02:42:28;16.15;;;13.80;;
57832;SDS011;43667;53.036;6.740;2023-05-10T02:44:59;16.33;;;13.68;;
57832;SDS011;43667;53.036;6.740;2023-05-10T02:47:27;21.23;;;14.35;;
57832;SDS011;43667;53.036;6.740;2023-05-10T02:49:53;17.00;;;13.85;;
57832;SDS011;43667;53.036;6.740;2023-05-10T02:52:21;15.68;;;13.10;;
57832;SDS011;43667;53.036;6.740;2023-05-10T02:54:52;17.73;;;13.82;;
57832;SDS011;43667;53.036;6.740;2023-05-10T02:57:22;18.80;;;14.57;;
57832;SDS011;43667;53.036;6.740;2023-05-10T02:59:52;18.42;;;14.35;;
57832;SDS011;43667;53.036;6.740;2023-05-10T03:02:18;18.02;;;13.80;;
57832;SDS011;43667;53.036;6.740;2023-05-10T03:04:45;18.70;;;14.05;;
57832;SDS011;43667;53.036;6.740;2023-05-10T03:07:10;20.52;;;15.05;;
57832;SDS011;43667;53.036;6.740;2023-05-10T03:09:36;19.38;;;15.25;;
57832;SDS011;43667;53.036;6.740;2023-05-10T03:14:42;24.58;;;16.48;;
57832;SDS011;43667;53.036;6.740;2023-05-10T03:17:22;29.08;;;16.88;;
57832;SDS011;43667;53.036;6.740;2023-05-10T03:19:55;19.65;;;14.32;;
57832;SDS011;43667;53.036;6.740;2023-05-10T03:22:34;19.77;;;14.70;;
57832;SDS011;43667;53.036;6.740;2023-05-10T03:25:12;26.80;;;16.45;;
57832;SDS011;43667;53.036;6.740;2023-05-10T03:27:42;24.80;;;16.38;;
57832;SDS011;43667;53.036;6.740;2023-05-10T03:30:08;23.60;;;18.17;;
57832;SDS011;43667;53.036;6.740;2023-05-10T03:32:36;23.88;;;17.90;;
57832;SDS011;43667;53.036;6.740;2023-05-10T03:35:09;23.38;;;17.75;;
57832;SDS011;43667;53.036;6.740;2023-05-10T03:37:35;28.33;;;18.70;;
57832;SDS011;43667;53.036;6.740;2023-05-10T03:40:01;22.42;;;17.70;;
57832;SDS011;43667;53.036;6.740;2023-05-10T03:42:27;32.00;;;20.27;;
57832;SDS011;43667;53.036;6.740;2023-05-10T03:44:53;38.30;;;20.88;;
57832;SDS011;43667;53.036;6.740;2023-05-10T03:47:18;25.17;;;18.38;;
57832;SDS011;43667;53.036;6.740;2023-05-10T03:49:44;23.48;;;18.10;;
57832;SDS011;43667;53.036;6.740;2023-05-10T03:52:10;30.70;;;19.40;;
57832;SDS011;43667;53.036;6.740;2023-05-10T03:54:36;27.58;;;19.05;;
57832;SDS011;43667;53.036;6.740;2023-05-10T03:57:02;26.65;;;17.20;;
57832;SDS011;43667;53.036;6.740;2023-05-10T03:59:28;24.80;;;18.50;;
57832;SDS011;43667;53.036;6.740;2023-05-10T04:01:54;24.13;;;18.50;;
57832;SDS011;43667;53.036;6.740;2023-05-10T04:04:20;22.90;;;17.42;;
57832;SDS011;43667;53.036;6.740;2023-05-10T04:06:46;26.20;;;18.52;;
57832;SDS011;43667;53.036;6.740;2023-05-10T04:09:12;24.42;;;17.90;;
57832;SDS011;43667;53.036;6.740;2023-05-10T04:11:38;21.25;;;16.48;;
57832;SDS011;43667;53.036;6.740;2023-05-10T04:14:04;23.73;;;17.05;;
57832;SDS011;43667;53.036;6.740;2023-05-10T04:16:29;23.35;;;17.08;;
57832;SDS011;43667;53.036;6.740;2023-05-10T04:18:55;25.27;;;17.77;;
57832;SDS011;43667;53.036;6.740;2023-05-10T04:21:21;23.40;;;17.20;;
57832;SDS011;43667;53.036;6.740;2023-05-10T04:23:46;23.08;;;17.05;;
57832;SDS011;43667;53.036;6.740;2023-05-10T04:26:12;23.17;;;16.83;;
57832;SDS011;43667;53.036;6.740;2023-05-10T04:28:38;20.75;;;15.75;;
57832;SDS011;43667;53.036;6.740;2023-05-10T04:31:04;22.85;;;15.60;;
57832;SDS011;43667;53.036;6.740;2023-05-10T04:33:31;17.50;;;13.88;;
57832;SDS011;43667;53.036;6.740;2023-05-10T04:35:57;14.45;;;12.95;;
57832;SDS011;43667;53.036;6.740;2023-05-10T04:38:22;20.85;;;14.90;;
57832;SDS011;43667;53.036;6.740;2023-05-10T04:40:48;19.73;;;13.55;;
57832;SDS011;43667;53.036;6.740;2023-05-10T04:43:14;14.82;;;11.63;;
57832;SDS011;43667;53.036;6.740;2023-05-10T04:45:39;14.60;;;12.15;;
57832;SDS011;43667;53.036;6.740;2023-05-10T04:48:05;14.98;;;11.80;;
57832;SDS011;43667;53.036;6.740;2023-05-10T04:50:31;15.23;;;12.20;;
57832;SDS011;43667;53.036;6.740;2023-05-10T04:52:56;16.00;;;11.18;;
57832;SDS011;43667;53.036;6.740;2023-05-10T04:55:22;16.02;;;11.48;;
57832;SDS011;43667;53.036;6.740;2023-05-10T04:57:48;13.10;;;11.70;;
57832;SDS011;43667;53.036;6.740;2023-05-10T05:00:13;11.32;;;9.63;;
57832;SDS011;43667;53.036;6.740;2023-05-10T05:02:43;14.63;;;11.75;;
57832;SDS011;43667;53.036;6.740;2023-05-10T05:05:12;13.43;;;10.75;;
57832;SDS011;43667;53.036;6.740;2023-05-10T05:07:38;13.57;;;10.90;;
57832;SDS011;43667;53.036;6.740;2023-05-10T05:10:04;14.02;;;12.13;;
57832;SDS011;43667;53.036;6.740;2023-05-10T05:12:31;12.60;;;11.15;;
57832;SDS011;43667;53.036;6.740;2023-05-10T05:14:56;13.50;;;11.30;;
57832;SDS011;43667;53.036;6.740;2023-05-10T05:17:22;12.93;;;10.55;;
57832;SDS011;43667;53.036;6.740;2023-05-10T05:19:48;11.80;;;10.52;;
57832;SDS011;43667;53.036;6.740;2023-05-10T05:22:15;10.70;;;9.60;;
57832;SDS011;43667;53.036;6.740;2023-05-10T05:24:40;11.50;;;10.40;;
57832;SDS011;43667;53.036;6.740;2023-05-10T05:27:06;11.95;;;9.95;;
57832;SDS011;43667;53.036;6.740;2023-05-10T05:29:32;11.68;;;9.68;;
57832;SDS011;43667;53.036;6.740;2023-05-10T05:31:57;10.75;;;9.75;;
57832;SDS011;43667;53.036;6.740;2023-05-10T05:34:23;9.95;;;9.05;;
57832;SDS011;43667;53.036;6.740;2023-05-10T05:36:49;10.35;;;9.32;;
57832;SDS011;43667;53.036;6.740;2023-05-10T05:39:15;11.07;;;10.00;;
57832;SDS011;43667;53.036;6.740;2023-05-10T05:41:41;10.88;;;9.77;;
57832;SDS011;43667;53.036;6.740;2023-05-10T05:44:07;9.38;;;8.13;;
57832;SDS011;43667;53.036;6.740;2023-05-10T05:46:33;9.63;;;8.63;;
57832;SDS011;43667;53.036;6.740;2023-05-10T05:48:58;9.68;;;8.68;;
57832;SDS011;43667;53.036;6.740;2023-05-10T05:51:24;9.40;;;8.50;;
57832;SDS011;43667;53.036;6.740;2023-05-10T05:53:50;8.98;;;8.07;;
57832;SDS011;43667;53.036;6.740;2023-05-10T05:56:15;7.80;;;7.15;;
57832;SDS011;43667;53.036;6.740;2023-05-10T05:58:42;9.02;;;8.13;;
57832;SDS011;43667;53.036;6.740;2023-05-10T06:01:08;9.48;;;8.57;;
57832;SDS011;43667;53.036;6.740;2023-05-10T06:03:34;8.00;;;7.30;;
57832;SDS011;43667;53.036;6.740;2023-05-10T06:05:59;7.35;;;6.65;;
57832;SDS011;43667;53.036;6.740;2023-05-10T06:08:25;6.10;;;5.50;;
57832;SDS011;43667;53.036;6.740;2023-05-10T06:10:51;10.05;;;6.78;;
57832;SDS011;43667;53.036;6.740;2023-05-10T06:13:16;7.03;;;6.32;;
57832;SDS011;43667;53.036;6.740;2023-05-10T06:15:42;7.05;;;5.25;;
57832;SDS011;43667;53.036;6.740;2023-05-10T06:18:07;6.32;;;5.53;;
57832;SDS011;43667;53.036;6.740;2023-05-10T06:20:33;4.72;;;4.32;;
57832;SDS011;43667;53.036;6.740;2023-05-10T06:22:59;5.22;;;3.63;;
57832;SDS011;43667;53.036;6.740;2023-05-10T06:25:24;3.67;;;3.25;;
57832;SDS011;43667;53.036;6.740;2023-05-10T06:27:50;5.78;;;3.47;;
57832;SDS011;43667;53.036;6.740;2023-05-10T06:30:20;4.40;;;3.47;;
57832;SDS011;43667;53.036;6.740;2023-05-10T06:32:48;3.38;;;2.60;;
57832;SDS011;43667;53.036;6.740;2023-05-10T06:35:13;3.72;;;3.42;;
57832;SDS011;43667;53.036;6.740;2023-05-10T06:37:39;2.58;;;2.38;;
57832;SDS011;43667;53.036;6.740;2023-05-10T06:40:05;2.42;;;2.22;;
57832;SDS011;43667;53.036;6.740;2023-05-10T06:42:31;2.50;;;2.30;;
57832;SDS011;43667;53.036;6.740;2023-05-10T06:44:57;1.80;;;1.70;;
57832;SDS011;43667;53.036;6.740;2023-05-10T06:47:22;2.75;;;2.30;;
57832;SDS011;43667;53.036;6.740;2023-05-10T06:49:48;1.80;;;1.70;;
57832;SDS011;43667;53.036;6.740;2023-05-10T06:52:13;3.45;;;1.73;;
57832;SDS011;43667;53.036;6.740;2023-05-10T06:54:39;1.35;;;1.23;;
57832;SDS011;43667;53.036;6.740;2023-05-10T06:57:05;1.13;;;1.02;;
57832;SDS011;43667;53.036;6.740;2023-05-10T06:59:30;1.85;;;1.33;;
57832;SDS011;43667;53.036;6.740;2023-05-10T07:01:56;1.83;;;1.23;;
57832;SDS011;43667;53.036;6.740;2023-05-10T07:04:22;1.92;;;1.10;;
57832;SDS011;43667;53.036;6.740;2023-05-10T07:06:47;1.02;;;0.93;;
57832;SDS011;43667;53.036;6.740;2023-05-10T07:09:14;1.88;;;0.80;;
57832;SDS011;43667;53.036;6.740;2023-05-10T07:11:40;2.97;;;0.50;;
57832;SDS011;43667;53.036;6.740;2023-05-10T07:14:06;2.42;;;1.13;;
57832;SDS011;43667;53.036;6.740;2023-05-10T07:16:32;0.25;;;0.25;;
57832;SDS011;43667;53.036;6.740;2023-05-10T07:18:57;1.23;;;0.40;;
57832;SDS011;43667;53.036;6.740;2023-05-10T07:21:23;1.05;;;0.40;;
57832;SDS011;43667;53.036;6.740;2023-05-10T07:23:49;0.50;;;0.20;;
57832;SDS011;43667;53.036;6.740;2023-05-10T07:26:15;0.65;;;0.10;;
57832;SDS011;43667;53.036;6.740;2023-05-10T07:28:41;0.22;;;0.10;;
57832;SDS011;43667;53.036;6.740;2023-05-10T07:31:07;0.75;;;0.20;;
57832;SDS011;43667;53.036;6.740;2023-05-10T07:33:32;0.17;;;0.10;;
57832;SDS011;43667;53.036;6.740;2023-05-10T07:35:58;0.20;;;0.10;;
57832;SDS011;43667;53.036;6.740;2023-05-10T07:38:23;0.98;;;0.10;;
57832;SDS011;43667;53.036;6.740;2023-05-10T07:40:49;0.65;;;0.03;;
57832;SDS011;43667;53.036;6.740;2023-05-10T07:43:15;0.05;;;0.00;;
57832;SDS011;43667;53.036;6.740;2023-05-10T07:45:40;0.75;;;0.10;;
57832;SDS011;43667;53.036;6.740;2023-05-10T07:48:06;0.00;;;0.00;;
57832;SDS011;43667;53.036;6.740;2023-05-10T07:50:32;1.40;;;0.00;;
57832;SDS011;43667;53.036;6.740;2023-05-10T07:52:57;0.22;;;0.00;;
57832;SDS011;43667;53.036;6.740;2023-05-10T07:55:23;1.85;;;0.52;;
57832;SDS011;43667;53.036;6.740;2023-05-10T07:57:49;0.40;;;0.10;;
57832;SDS011;43667;53.036;6.740;2023-05-10T08:00:16;0.10;;;0.00;;
57832;SDS011;43667;53.036;6.740;2023-05-10T08:02:43;0.22;;;0.10;;
57832;SDS011;43667;53.036;6.740;2023-05-10T08:05:09;2.22;;;0.20;;
57832;SDS011;43667;53.036;6.740;2023-05-10T08:07:34;0.75;;;0.15;;
57832;SDS011;43667;53.036;6.740;2023-05-10T08:10:00;0.38;;;0.30;;
57832;SDS011;43667;53.036;6.740;2023-05-10T08:12:27;2.25;;;0.63;;
57832;SDS011;43667;53.036;6.740;2023-05-10T08:14:52;1.52;;;1.25;;
57832;SDS011;43667;53.036;6.740;2023-05-10T08:17:18;1.10;;;0.95;;
57832;SDS011;43667;53.036;6.740;2023-05-10T08:19:44;1.90;;;1.48;;
57832;SDS011;43667;53.036;6.740;2023-05-10T08:22:09;3.10;;;2.80;;
57832;SDS011;43667;53.036;6.740;2023-05-10T08:24:35;3.20;;;2.85;;
57832;SDS011;43667;53.036;6.740;2023-05-10T08:27:03;2.45;;;2.25;;
57832;SDS011;43667;53.036;6.740;2023-05-10T08:29:33;2.75;;;2.55;;
57832;SDS011;43667;53.036;6.740;2023-05-10T08:31:58;2.83;;;2.53;;
57832;SDS011;43667;53.036;6.740;2023-05-10T08:34:25;2.70;;;2.50;;
57832;SDS011;43667;53.036;6.740;2023-05-10T08:36:51;3.38;;;3.08;;
57832;SDS011;43667;53.036;6.740;2023-05-10T08:39:17;3.60;;;3.30;;
57832;SDS011;43667;53.036;6.740;2023-05-10T08:41:43;3.92;;;3.58;;
57832;SDS011;43667;53.036;6.740;2023-05-10T08:44:11;4.03;;;3.72;;
57832;SDS011;43667;53.036;6.740;2023-05-10T08:46:37;3.45;;;3.15;;
57832;SDS011;43667;53.036;6.740;2023-05-10T08:49:10;5.97;;;3.97;;
57832;SDS011;43667;53.036;6.740;2023-05-10T08:51:43;4.50;;;3.97;;
57832;SDS011;43667;53.036;6.740;2023-05-10T08:54:14;5.18;;;4.10;;
57832;SDS011;43667;53.036;6.740;2023-05-10T08:56:40;4.93;;;4.45;;
57832;SDS011;43667;53.036;6.740;2023-05-10T08:59:06;4.72;;;4.28;;
57832;SDS011;43667;53.036;6.740;2023-05-10T09:01:32;4.88;;;4.47;;
57832;SDS011;43667;53.036;6.740;2023-05-10T09:03:58;3.92;;;3.63;;
57832;SDS011;43667;53.036;6.740;2023-05-10T09:06:24;5.28;;;4.30;;
57832;SDS011;43667;53.036;6.740;2023-05-10T09:08:50;5.32;;;4.28;;
57832;SDS011;43667;53.036;6.740;2023-05-10T09:11:17;5.07;;;4.57;;
57832;SDS011;43667;53.036;6.740;2023-05-10T09:13:45;4.60;;;4.15;;
57832;SDS011;43667;53.036;6.740;2023-05-10T09:16:13;4.18;;;3.88;;
57832;SDS011;43667;53.036;6.740;2023-05-10T09:18:39;3.88;;;3.50;;
57832;SDS011;43667;53.036;6.740;2023-05-10T09:21:05;4.15;;;3.75;;
57832;SDS011;43667;53.036;6.740;2023-05-10T09:23:30;4.45;;;3.78;;
57832;SDS011;43667;53.036;6.740;2023-05-10T09:26:06;4.50;;;3.90;;
57832;SDS011;43667;53.036;6.740;2023-05-10T09:28:49;5.45;;;3.60;;
57832;SDS011;43667;53.036;6.740;2023-05-10T09:31:16;3.92;;;3.53;;
57832;SDS011;43667;53.036;6.740;2023-05-10T09:33:45;3.72;;;3.30;;
57832;SDS011;43667;53.036;6.740;2023-05-10T09:36:12;3.92;;;3.47;;
57832;SDS011;43667;53.036;6.740;2023-05-10T09:38:45;7.53;;;4.90;;
57832;SDS011;43667;53.036;6.740;2023-05-10T09:41:22;4.90;;;4.32;;
57832;SDS011;43667;53.036;6.740;2023-05-10T09:43:49;5.57;;;4.80;;
57832;SDS011;43667;53.036;6.740;2023-05-10T09:46:15;5.07;;;4.32;;
57832;SDS011;43667;53.036;6.740;2023-05-10T09:48:41;7.22;;;6.47;;
57832;SDS011;43667;53.036;6.740;2023-05-10T09:51:08;7.30;;;6.53;;
57832;SDS011;43667;53.036;6.740;2023-05-10T09:53:34;7.93;;;7.22;;
57832;SDS011;43667;53.036;6.740;2023-05-10T09:56:00;8.88;;;7.97;;
57832;SDS011;43667;53.036;6.740;2023-05-10T09:58:25;8.30;;;7.60;;
57832;SDS011;43667;53.036;6.740;2023-05-10T10:00:51;6.85;;;6.25;;
57832;SDS011;43667;53.036;6.740;2023-05-10T10:03:19;8.20;;;6.28;;
57832;SDS011;43667;53.036;6.740;2023-05-10T10:05:46;6.95;;;5.50;;
57832;SDS011;43667;53.036;6.740;2023-05-10T10:08:13;4.80;;;4.32;;
57832;SDS011;43667;53.036;6.740;2023-05-10T10:10:40;5.15;;;3.90;;
57832;SDS011;43667;53.036;6.740;2023-05-10T10:13:06;4.60;;;3.67;;
57832;SDS011;43667;53.036;6.740;2023-05-10T10:15:33;3.55;;;3.20;;
57832;SDS011;43667;53.036;6.740;2023-05-10T10:17:59;3.88;;;3.45;;
57832;SDS011;43667;53.036;6.740;2023-05-10T10:20:25;4.70;;;3.40;;
57832;SDS011;43667;53.036;6.740;2023-05-10T10:22:52;3.92;;;3.50;;
57832;SDS011;43667;53.036;6.740;2023-05-10T10:25:18;6.95;;;3.58;;
57832;SDS011;43667;53.036;6.740;2023-05-10T10:35:19;5.35;;;3.97;;
57832;SDS011;43667;53.036;6.740;2023-05-10T10:37:46;4.43;;;2.90;;
57832;SDS011;43667;53.036;6.740;2023-05-10T10:40:22;3.92;;;3.53;;
57832;SDS011;43667;53.036;6.740;2023-05-10T10:42:52;4.28;;;3.80;;
57832;SDS011;43667;53.036;6.740;2023-05-10T10:45:18;8.05;;;7.18;;
57832;SDS011;43667;53.036;6.740;2023-05-10T10:47:45;7.15;;;4.22;;
57832;SDS011;43667;53.036;6.740;2023-05-10T10:50:11;5.07;;;3.65;;
57832;SDS011;43667;53.036;6.740;2023-05-10T10:52:44;6.50;;;4.00;;
57832;SDS011;43667;53.036;6.740;2023-05-10T10:55:14;6.68;;;4.20;;
57832;SDS011;43667;53.036;6.740;2023-05-10T10:57:45;6.75;;;3.40;;
57832;SDS011;43667;53.036;6.740;2023-05-10T11:00:25;7.18;;;4.35;;
57832;SDS011;43667;53.036;6.740;2023-05-10T11:05:38;7.43;;;3.90;;
57832;SDS011;43667;53.036;6.740;2023-05-10T11:13:41;4.30;;;3.78;;
57832;SDS011;43667;53.036;6.740;2023-05-10T11:18:53;5.97;;;5.03;;
57832;SDS011;43667;53.036;6.740;2023-05-10T11:21:22;5.35;;;4.85;;
57832;SDS011;43667;53.036;6.740;2023-05-10T11:23:49;5.47;;;4.95;;
57832;SDS011;43667;53.036;6.740;2023-05-10T11:26:16;5.30;;;4.82;;
57832;SDS011;43667;53.036;6.740;2023-05-10T11:31:18;9.30;;;4.53;;
57832;SDS011;43667;53.036;6.740;2023-05-10T11:33:48;5.50;;;4.78;;
57832;SDS011;43667;53.036;6.740;2023-05-10T11:36:20;5.85;;;5.20;;
57832;SDS011;43667;53.036;6.740;2023-05-10T11:38:48;8.48;;;5.65;;
57832;SDS011;43667;53.036;6.740;2023-05-10T11:41:14;5.45;;;4.32;;
57832;SDS011;43667;53.036;6.740;2023-05-10T11:43:41;7.20;;;5.70;;
57832;SDS011;43667;53.036;6.740;2023-05-10T11:46:08;7.03;;;5.50;;
57832;SDS011;43667;53.036;6.740;2023-05-10T11:48:36;5.28;;;4.72;;
57832;SDS011;43667;53.036;6.740;2023-05-10T11:51:09;6.22;;;5.22;;
57832;SDS011;43667;53.036;6.740;2023-05-10T11:53:35;6.32;;;5.72;;
57832;SDS011;43667;53.036;6.740;2023-05-10T11:56:05;6.15;;;5.60;;
57832;SDS011;43667;53.036;6.740;2023-05-10T11:58:32;5.57;;;4.78;;
57832;SDS011;43667;53.036;6.740;2023-05-10T12:01:01;7.63;;;5.85;;
57832;SDS011;43667;53.036;6.740;2023-05-10T12:03:28;7.60;;;4.93;;
57832;SDS011;43667;53.036;6.740;2023-05-10T12:05:55;6.72;;;5.47;;
57832;SDS011;43667;53.036;6.740;2023-05-10T12:08:22;7.15;;;5.15;;
57832;SDS011;43667;53.036;6.740;2023-05-10T12:10:50;6.47;;;5.13;;
57832;SDS011;43667;53.036;6.740;2023-05-10T12:13:16;6.00;;;4.90;;
57832;SDS011;43667;53.036;6.740;2023-05-10T12:15:43;5.63;;;5.13;;
57832;SDS011;43667;53.036;6.740;2023-05-10T12:18:09;6.90;;;4.97;;
57832;SDS011;43667;53.036;6.740;2023-05-10T12:20:36;5.20;;;4.43;;
57832;SDS011;43667;53.036;6.740;2023-05-10T12:23:02;5.15;;;4.65;;
57832;SDS011;43667;53.036;6.740;2023-05-10T12:25:38;7.50;;;5.18;;
57832;SDS011;43667;53.036;6.740;2023-05-10T12:28:05;6.03;;;4.85;;
57832;SDS011;43667;53.036;6.740;2023-05-10T12:30:33;7.70;;;4.70;;
57832;SDS011;43667;53.036;6.740;2023-05-10T12:33:07;7.70;;;4.72;;
57832;SDS011;43667;53.036;6.740;2023-05-10T12:35:42;6.38;;;4.40;;
57832;SDS011;43667;53.036;6.740;2023-05-10T12:41:03;9.75;;;4.90;;
57832;SDS011;43667;53.036;6.740;2023-05-10T12:43:31;7.63;;;4.82;;
57832;SDS011;43667;53.036;6.740;2023-05-10T12:45:57;7.57;;;5.30;;
57832;SDS011;43667;53.036;6.740;2023-05-10T12:48:23;6.80;;;5.40;;
57832;SDS011;43667;53.036;6.740;2023-05-10T12:50:48;6.40;;;4.90;;
57832;SDS011;43667;53.036;6.740;2023-05-10T12:53:14;7.82;;;5.47;;
57832;SDS011;43667;53.036;6.740;2023-05-10T12:55:43;6.93;;;5.80;;
57832;SDS011;43667;53.036;6.740;2023-05-10T12:58:09;9.50;;;5.30;;
57832;SDS011;43667;53.036;6.740;2023-05-10T13:00:35;6.13;;;5.38;;
57832;SDS011;43667;53.036;6.740;2023-05-10T13:03:03;6.03;;;5.43;;
57832;SDS011;43667;53.036;6.740;2023-05-10T13:05:31;6.88;;;5.20;;
57832;SDS011;43667;53.036;6.740;2023-05-10T13:07:57;6.53;;;4.70;;
57832;SDS011;43667;53.036;6.740;2023-05-10T13:10:23;8.50;;;5.20;;
57832;SDS011;43667;53.036;6.740;2023-05-10T13:12:49;6.30;;;5.15;;
57832;SDS011;43667;53.036;6.740;2023-05-10T13:15:15;6.90;;;6.03;;
57832;SDS011;43667;53.036;6.740;2023-05-10T13:17:41;8.35;;;5.80;;
57832;SDS011;43667;53.036;6.740;2023-05-10T13:20:07;6.78;;;5.93;;
57832;SDS011;43667;53.036;6.740;2023-05-10T13:22:34;6.70;;;5.70;;
57832;SDS011;43667;53.036;6.740;2023-05-10T13:25:03;7.72;;;5.55;;
57832;SDS011;43667;53.036;6.740;2023-05-10T13:27:29;11.07;;;7.10;;
57832;SDS011;43667;53.036;6.740;2023-05-10T13:29:54;7.32;;;6.20;;
57832;SDS011;43667;53.036;6.740;2023-05-10T13:32:20;8.68;;;6.10;;
57832;SDS011;43667;53.036;6.740;2023-05-10T13:34:46;7.20;;;6.03;;
57832;SDS011;43667;53.036;6.740;2023-05-10T13:37:12;5.60;;;5.10;;
57832;SDS011;43667;53.036;6.740;2023-05-10T13:39:37;9.73;;;6.25;;
57832;SDS011;43667;53.036;6.740;2023-05-10T13:42:03;7.65;;;6.18;;
57832;SDS011;43667;53.036;6.740;2023-05-10T13:44:29;7.28;;;5.40;;
57832;SDS011;43667;53.036;6.740;2023-05-10T13:46:56;6.22;;;5.43;;
57832;SDS011;43667;53.036;6.740;2023-05-10T13:49:22;6.43;;;4.93;;
57832;SDS011;43667;53.036;6.740;2023-05-10T13:51:48;6.90;;;5.63;;
57832;SDS011;43667;53.036;6.740;2023-05-10T13:54:14;7.43;;;5.95;;
57832;SDS011;43667;53.036;6.740;2023-05-10T13:56:41;7.80;;;6.10;;
57832;SDS011;43667;53.036;6.740;2023-05-10T13:59:08;6.53;;;5.72;;
57832;SDS011;43667;53.036;6.740;2023-05-10T14:01:34;7.55;;;5.05;;
57832;SDS011;43667;53.036;6.740;2023-05-10T14:04:00;8.25;;;6.05;;
57832;SDS011;43667;53.036;6.740;2023-05-10T14:06:25;8.98;;;5.68;;
57832;SDS011;43667;53.036;6.740;2023-05-10T14:08:52;8.13;;;5.40;;
57832;SDS011;43667;53.036;6.740;2023-05-10T14:11:18;6.28;;;5.07;;
57832;SDS011;43667;53.036;6.740;2023-05-10T14:13:44;7.25;;;5.43;;
57832;SDS011;43667;53.036;6.740;2023-05-10T14:16:10;6.80;;;5.15;;
57832;SDS011;43667;53.036;6.740;2023-05-10T14:18:36;6.38;;;5.78;;
57832;SDS011;43667;53.036;6.740;2023-05-10T14:21:02;7.50;;;5.20;;
57832;SDS011;43667;53.036;6.740;2023-05-10T14:23:28;7.05;;;5.30;;
57832;SDS011;43667;53.036;6.740;2023-05-10T14:25:55;7.50;;;5.82;;
57832;SDS011;43667;53.036;6.740;2023-05-10T14:28:21;7.40;;;5.53;;
57832;SDS011;43667;53.036;6.740;2023-05-10T14:30:47;6.10;;;5.43;;
57832;SDS011;43667;53.036;6.740;2023-05-10T14:33:13;6.25;;;4.93;;
57832;SDS011;43667;53.036;6.740;2023-05-10T14:35:39;5.60;;;4.38;;
57832;SDS011;43667;53.036;6.740;2023-05-10T14:38:05;7.00;;;4.75;;
57832;SDS011;43667;53.036;6.740;2023-05-10T14:40:31;6.00;;;3.67;;
57832;SDS011;43667;53.036;6.740;2023-05-10T14:42:57;6.68;;;4.25;;
57832;SDS011;43667;53.036;6.740;2023-05-10T14:45:22;7.72;;;4.32;;
57832;SDS011;43667;53.036;6.740;2023-05-10T14:47:48;4.70;;;3.83;;
57832;SDS011;43667;53.036;6.740;2023-05-10T14:50:15;5.35;;;3.67;;
57832;SDS011;43667;53.036;6.740;2023-05-10T14:52:41;6.43;;;3.67;;
57832;SDS011;43667;53.036;6.740;2023-05-10T14:55:07;4.90;;;3.38;;
57832;SDS011;43667;53.036;6.740;2023-05-10T14:57:33;6.15;;;3.25;;
57832;SDS011;43667;53.036;6.740;2023-05-10T14:59:59;5.60;;;3.22;;
57832;SDS011;43667;53.036;6.740;2023-05-10T15:02:24;7.25;;;3.70;;
57832;SDS011;43667;53.036;6.740;2023-05-10T15:04:50;4.28;;;3.88;;
57832;SDS011;43667;53.036;6.740;2023-05-10T15:07:16;5.05;;;3.58;;